Time;durP1;ratioP1;P1;durP2;ratioP2;P2;SDS_P1;SDS_P2;PMS_P1;PMS_P2;Temp;Humidity;BMP_temperature;BMP_pressure;BME280_temperature;BME280_humidity;BME280_pressure;Samples;Min_cycle;Max_cycle;Signal;HPM_P1;HPM_P2
2021/06/30 00:02:13;;;;;;;4.80;0.68;;;17.50;99.90;;;;;;4994645;28;20109;-84
2021/06/30 00:04:39;;;;;;;6.35;1.00;;;17.30;99.90;;;;;;4977059;28;20030;-84
2021/06/30 00:07:06;;;;;;;3.45;0.77;;;17.00;99.90;;;;;;4994497;28;20026;-84
2021/06/30 00:09:32;;;;;;;5.07;0.70;;;16.90;99.90;;;;;;4994402;28;20363;-84
2021/06/30 00:11:57;;;;;;;5.20;0.70;;;16.80;99.90;;;;;;4976885;28;20065;-84
2021/06/30 00:14:23;;;;;;;3.58;0.60;;;16.70;99.90;;;;;;4976893;28;20054;-84
2021/06/30 00:16:50;;;;;;;4.82;0.82;;;16.70;99.90;;;;;;4976900;28;20145;-84
2021/06/30 00:19:17;;;;;;;4.25;0.60;;;16.70;99.90;;;;;;4994560;28;20042;-84
2021/06/30 00:21:43;;;;;;;3.53;0.73;;;16.90;99.90;;;;;;4976706;28;20390;-84
2021/06/30 00:24:08;;;;;;;3.50;0.60;;;16.80;99.90;;;;;;4976773;28;20030;-84
2021/06/30 00:26:35;;;;;;;7.72;0.57;;;16.80;99.90;;;;;;4977546;28;20022;-84
2021/06/30 00:29:01;;;;;;;3.50;0.77;;;16.80;99.90;;;;;;4976692;28;20386;-84
2021/06/30 00:31:27;;;;;;;8.07;0.98;;;16.90;99.90;;;;;;4976661;28;20482;-84
2021/06/30 00:33:53;;;;;;;5.43;0.80;;;17.00;99.90;;;;;;4976954;28;20122;-84
2021/06/30 00:36:18;;;;;;;3.58;0.60;;;17.00;99.90;;;;;;4976915;28;20061;-84
2021/06/30 00:38:44;;;;;;;4.20;1.00;;;17.00;99.90;;;;;;4994010;28;20030;-84
2021/06/30 00:41:10;;;;;;;3.47;0.60;;;17.00;99.90;;;;;;4976585;28;20027;-84
2021/06/30 00:43:36;;;;;;;1.45;0.57;;;17.20;99.90;;;;;;4976510;28;20543;-83
2021/06/30 00:46:01;;;;;;;2.50;0.60;;;17.40;99.90;;;;;;4993957;28;20022;-83
2021/06/30 00:48:27;;;;;;;5.22;0.60;;;17.60;99.90;;;;;;4993985;28;20022;-84
2021/06/30 00:50:53;;;;;;;3.53;0.40;;;17.70;99.90;;;;;;4976525;28;20409;-84
2021/06/30 00:53:19;;;;;;;3.08;0.60;;;17.60;99.90;;;;;;4976428;28;20113;-83
2021/06/30 00:55:50;;;;;;;2.90;0.70;;;17.60;99.90;;;;;;4976407;28;20430;-83
2021/06/30 00:58:16;;;;;;;0.93;0.50;;;17.50;99.90;;;;;;4994129;28;20026;-83
2021/06/30 01:00:42;;;;;;;2.63;0.50;;;17.30;99.90;;;;;;4976131;28;20414;-83
2021/06/30 01:03:09;;;;;;;0.68;0.55;;;17.20;99.90;;;;;;4976369;28;20445;-83
2021/06/30 01:05:34;;;;;;;3.75;0.50;;;16.80;99.90;;;;;;4979996;28;20053;-83
2021/06/30 01:08:03;;;;;;;2.25;0.60;;;16.70;99.90;;;;;;4980226;28;20108;-81
2021/06/30 01:10:29;;;;;;;1.63;0.60;;;16.50;99.90;;;;;;4980208;28;20393;-83
2021/06/30 01:12:54;;;;;;;3.55;0.60;;;16.30;99.90;;;;;;4980116;28;20117;-83
2021/06/30 01:15:20;;;;;;;2.88;0.68;;;15.90;99.90;;;;;;4980168;28;20062;-82
2021/06/30 01:17:47;;;;;;;1.25;0.60;;;15.90;99.90;;;;;;4980076;28;20113;-82
2021/06/30 01:20:13;;;;;;;3.78;0.50;;;15.80;99.90;;;;;;4979961;28;20038;-82
2021/06/30 01:22:43;;;;;;;2.55;0.45;;;;;;;;;;4980046;28;20030;-85
2021/06/30 01:25:10;;;;;;;2.10;0.40;;;;;;;;;;4979995;28;20524;-83
2021/06/30 01:27:36;;;;;;;1.08;0.50;;;15.40;99.90;;;;;;4979891;28;20073;-82
2021/06/30 01:30:05;;;;;;;3.22;0.52;;;15.30;99.90;;;;;;4979870;28;20050;-83
2021/06/30 01:32:31;;;;;;;2.22;0.73;;;15.20;99.90;;;;;;4979818;28;20031;-83
2021/06/30 01:34:56;;;;;;;3.15;0.30;;;15.20;99.90;;;;;;4979723;28;20507;-83
2021/06/30 01:37:22;;;;;;;2.78;0.50;;;15.20;99.90;;;;;;4979732;28;20041;-84
2021/06/30 01:39:48;;;;;;;1.27;0.38;;;15.30;99.90;;;;;;4997152;28;20477;-83
2021/06/30 01:42:13;;;;;;;1.10;0.70;;;15.10;99.90;;;;;;4979546;28;20058;-84
2021/06/30 01:44:39;;;;;;;0.60;0.40;;;15.40;99.90;;;;;;4979619;28;20023;-84
2021/06/30 01:47:05;;;;;;;4.13;0.40;;;15.60;99.90;;;;;;4979646;28;20229;-83
2021/06/30 01:49:30;;;;;;;0.45;0.40;;;15.80;99.90;;;;;;4997256;28;20474;-83
2021/06/30 01:51:56;;;;;;;1.60;0.52;;;15.60;99.90;;;;;;4979485;28;20022;-82
2021/06/30 01:54:22;;;;;;;0.98;0.40;;;15.60;99.90;;;;;;4979412;28;20038;-83
2021/06/30 01:56:49;;;;;;;3.58;0.60;;;15.60;99.90;;;;;;4996897;28;20430;-83
2021/06/30 01:59:15;;;;;;;1.40;0.47;;;15.80;99.90;;;;;;4979315;28;20038;-83
2021/06/30 02:01:42;;;;;;;2.17;0.52;;;16.00;99.90;;;;;;4996535;28;20050;-83
2021/06/30 02:04:08;;;;;;;0.77;0.40;;;16.00;99.90;;;;;;4979226;28;20039;-82
2021/06/30 02:06:42;;;;;;;0.68;0.30;;;15.80;99.90;;;;;;4979180;28;20027;-83
2021/06/30 02:09:11;;;;;;;0.80;0.22;;;15.60;99.90;;;;;;4996986;28;20026;-82
2021/06/30 02:11:37;;;;;;;0.57;0.38;;;15.60;99.90;;;;;;4979152;28;20401;-83
2021/06/30 02:14:05;;;;;;;2.03;0.40;;;15.30;99.90;;;;;;4979269;28;20023;-82
2021/06/30 02:16:31;;;;;;;0.93;0.22;;;15.20;99.90;;;;;;4978393;28;20030;-83
2021/06/30 02:19:01;;;;;;;3.10;0.40;;;15.30;99.90;;;;;;4979179;28;20068;-83
2021/06/30 02:21:27;;;;;;;0.22;0.13;;;15.30;99.90;;;;;;4978980;28;20027;-83
2021/06/30 02:23:53;;;;;;;1.17;0.50;;;15.40;99.90;;;;;;4978794;28;20038;-83
2021/06/30 02:26:18;;;;;;;0.93;0.30;;;15.70;99.90;;;;;;4978893;28;20026;-83
2021/06/30 02:28:44;;;;;;;2.58;0.40;;;15.60;99.90;;;;;;4978837;28;20023;-83
2021/06/30 02:31:10;;;;;;;1.15;0.52;;;15.60;99.90;;;;;;4996213;28;20497;-81
2021/06/30 02:33:36;;;;;;;2.53;0.30;;;15.50;99.90;;;;;;4978686;28;20394;-83
2021/06/30 02:36:01;;;;;;;0.25;0.20;;;15.30;99.90;;;;;;4978598;28;20507;-82
2021/06/30 02:38:27;;;;;;;0.32;0.20;;;15.30;99.90;;;;;;4978633;28;20387;-82
2021/06/30 02:40:54;;;;;;;0.25;0.13;;;15.30;99.90;;;;;;4996369;28;20026;-82
2021/06/30 02:43:20;;;;;;;2.38;0.52;;;15.20;99.90;;;;;;4978496;28;20026;-82
2021/06/30 02:45:45;;;;;;;0.95;0.30;;;15.20;99.90;;;;;;4978453;28;20470;-83
2021/06/30 02:48:11;;;;;;;0.40;0.25;;;15.30;99.90;;;;;;4978471;28;20027;-83
2021/06/30 02:50:37;;;;;;;0.52;0.10;;;15.30;99.90;;;;;;4996118;28;20027;-83
2021/06/30 02:53:03;;;;;;;0.50;0.35;;;15.40;99.90;;;;;;4978390;28;20065;-83
2021/06/30 02:55:28;;;;;;;2.38;0.20;;;15.60;99.90;;;;;;4978348;28;20164;-83
2021/06/30 02:57:54;;;;;;;1.35;0.30;;;15.70;99.90;;;;;;4996008;28;20486;-83
2021/06/30 03:00:23;;;;;;;0.70;0.38;;;15.90;99.90;;;;;;4977955;28;20128;-82
2021/06/30 03:02:49;;;;;;;2.40;0.30;;;15.80;99.90;;;;;;4978124;28;20034;-83
2021/06/30 03:05:15;;;;;;;1.98;0.20;;;15.80;99.90;;;;;;4978110;28;20029;-83
2021/06/30 03:07:42;;;;;;;0.77;0.20;;;15.80;99.90;;;;;;4995581;28;20081;-82
2021/06/30 03:10:10;;;;;;;2.72;0.30;;;15.50;99.90;;;;;;4978004;28;20029;-82
2021/06/30 03:12:36;;;;;;;0.45;0.20;;;15.00;99.90;;;;;;4977909;28;20031;-82
2021/06/30 03:15:08;;;;;;;0.95;0.20;;;15.10;99.90;;;;;;4977951;28;20038;-82
2021/06/30 03:17:35;;;;;;;1.02;0.30;;;14.90;99.90;;;;;;4977923;28;20026;-82
2021/06/30 03:20:06;;;;;;;0.80;0.40;;;14.90;99.90;;;;;;4977839;28;20121;-83
2021/06/30 03:22:32;;;;;;;0.20;0.10;;;15.30;99.90;;;;;;4977829;28;20037;-83
2021/06/30 03:24:58;;;;;;;1.02;0.35;;;15.50;99.90;;;;;;4977823;28;20023;-82
2021/06/30 03:27:24;;;;;;;3.72;0.30;;;15.50;99.90;;;;;;4977050;28;20030;-82
2021/06/30 03:29:50;;;;;;;1.98;0.10;;;15.30;99.90;;;;;;4977637;28;20382;-82
2021/06/30 03:32:16;;;;;;;1.17;0.28;;;15.30;99.90;;;;;;4977646;28;20066;-83
2021/06/30 03:34:41;;;;;;;1.98;0.35;;;15.40;99.90;;;;;;4977614;28;20034;-82
2021/06/30 03:37:07;;;;;;;0.52;0.28;;;15.30;99.90;;;;;;4995265;28;20030;-83
2021/06/30 03:39:33;;;;;;;0.63;0.30;;;15.00;99.90;;;;;;4995242;28;20037;-83
2021/06/30 03:41:59;;;;;;;0.60;0.15;;;15.10;99.90;;;;;;4977409;28;20481;-82
2021/06/30 03:44:24;;;;;;;6.63;0.28;;;15.10;99.90;;;;;;4977407;28;20421;-82
2021/06/30 03:46:50;;;;;;;1.98;0.20;;;14.60;99.90;;;;;;4977402;28;20034;-83
2021/06/30 03:49:17;;;;;;;6.40;0.30;;;14.70;99.90;;;;;;4994744;28;20025;-82
2021/06/30 03:51:43;;;;;;;2.95;0.30;;;14.80;99.90;;;;;;4994725;28;20034;-83
2021/06/30 03:54:09;;;;;;;1.02;0.38;;;14.60;99.90;;;;;;4977268;28;20018;-81
2021/06/30 03:56:35;;;;;;;2.10;0.25;;;14.70;99.90;;;;;;4977188;28;20030;-82
2021/06/30 03:59:01;;;;;;;0.57;0.20;;;14.80;99.90;;;;;;4977152;28;20032;-83
2021/06/30 04:01:27;;;;;;;1.23;0.25;;;15.00;99.90;;;;;;4976718;28;20121;-82
2021/06/30 04:03:58;;;;;;;0.77;0.30;;;14.60;99.90;;;;;;4976938;28;20034;-83
2021/06/30 04:06:24;;;;;;;2.20;0.25;;;14.50;99.90;;;;;;4977019;28;20022;-83
2021/06/30 04:08:50;;;;;;;3.70;0.30;;;14.60;99.90;;;;;;4976957;28;20474;-83
2021/06/30 04:11:16;;;;;;;0.85;0.22;;;;;;;;;;4994709;28;20046;-82
2021/06/30 04:13:42;;;;;;;0.30;0.17;;;;;;;;;;4994336;28;20080;-83
2021/06/30 04:16:08;;;;;;;2.65;0.40;;;;;;;;;;4994329;28;20058;-83
2021/06/30 04:18:34;;;;;;;0.82;0.30;;;;;;;;;;4976838;28;20027;-83
2021/06/30 04:21:01;;;;;;;3.38;0.45;;;;;;;;;;4976776;28;20058;-83
2021/06/30 04:23:27;;;;;;;2.10;0.30;;;;;;;;;;4976747;28;20485;-83
2021/06/30 04:25:53;;;;;;;0.70;0.20;;;;;;;;;;4976776;28;20030;-83
2021/06/30 04:28:19;;;;;;;0.68;0.28;;;;;;;;;;4994196;28;20057;-84
2021/06/30 04:30:45;;;;;;;2.13;0.30;;;;;;;;;;4976740;28;20031;-84
2021/06/30 04:33:11;;;;;;;0.88;0.20;;;;;;;;;;4976635;28;20115;-84
2021/06/30 04:35:37;;;;;;;1.83;0.20;;;;;;;;;;4994046;28;20081;-85
2021/06/30 04:38:04;;;;;;;1.30;0.20;;;;;;;;;;4994244;28;20531;-84
2021/06/30 04:40:30;;;;;;;0.57;0.20;;;15.60;99.90;;;;;;4976343;28;20030;-83
2021/06/30 04:42:56;;;;;;;1.38;0.20;;;15.60;99.90;;;;;;4976492;28;20027;-83
2021/06/30 04:45:22;;;;;;;1.50;0.20;;;15.40;99.90;;;;;;4976507;28;20023;-83
2021/06/30 04:47:48;;;;;;;1.45;0.32;;;15.20;99.90;;;;;;4976561;28;20473;-83
2021/06/30 04:50:14;;;;;;;2.45;0.30;;;15.30;99.90;;;;;;4976534;28;20033;-83
2021/06/30 04:52:40;;;;;;;1.00;0.30;;;15.60;99.90;;;;;;4976497;28;20030;-83
2021/06/30 04:55:06;;;;;;;1.88;0.40;;;15.50;99.90;;;;;;4993896;28;20101;-83
2021/06/30 04:57:33;;;;;;;1.05;0.25;;;15.40;99.90;;;;;;4993855;28;20553;-83
2021/06/30 04:59:59;;;;;;;2.80;0.40;;;15.40;99.90;;;;;;4976024;28;20124;-83
2021/06/30 05:02:25;;;;;;;0.55;0.28;;;15.20;99.90;;;;;;4976277;28;20069;-84
2021/06/30 05:04:50;;;;;;;0.32;0.28;;;15.20;99.90;;;;;;4976414;28;20026;-82
2021/06/30 05:07:16;;;;;;;1.85;0.30;;;15.20;99.90;;;;;;4976402;28;20018;-83
2021/06/30 05:09:42;;;;;;;1.70;0.20;;;15.20;99.90;;;;;;4976342;28;20044;-84
2021/06/30 05:12:07;;;;;;;1.02;0.40;;;15.20;99.90;;;;;;4993981;28;20037;-84
2021/06/30 05:14:33;;;;;;;0.25;0.20;;;15.20;99.90;;;;;;4976265;28;20026;-83
2021/06/30 05:16:59;;;;;;;1.15;0.40;;;15.10;99.90;;;;;;4976274;28;20370;-83
2021/06/30 05:19:25;;;;;;;1.42;0.20;;;15.00;99.90;;;;;;4976272;28;20030;-83
2021/06/30 05:21:51;;;;;;;2.22;0.60;;;14.90;99.90;;;;;;4976180;28;20560;-83
2021/06/30 05:24:16;;;;;;;0.82;0.40;;;14.90;99.90;;;;;;4976206;28;20033;-83
2021/06/30 05:26:42;;;;;;;5.18;0.40;;;15.00;99.90;;;;;;4993846;28;20081;-84
2021/06/30 05:29:08;;;;;;;0.30;0.20;;;15.20;99.90;;;;;;4976192;28;20019;-83
2021/06/30 05:31:33;;;;;;;1.45;0.40;;;15.20;99.90;;;;;;4976143;28;20028;-83
2021/06/30 05:33:59;;;;;;;2.20;0.30;;;15.30;99.90;;;;;;4976091;28;20030;-83
2021/06/30 05:36:25;;;;;;;1.85;0.40;;;15.20;99.90;;;;;;4976070;28;20026;-84
2021/06/30 05:38:51;;;;;;;0.60;0.25;;;15.30;99.90;;;;;;4976115;28;20466;-84
2021/06/30 05:41:16;;;;;;;1.00;0.32;;;15.20;99.90;;;;;;4976309;28;20027;-83
2021/06/30 05:43:42;;;;;;;0.73;0.30;;;15.40;99.90;;;;;;4976023;28;20398;-84
2021/06/30 05:46:08;;;;;;;2.65;0.30;;;15.60;99.90;;;;;;4976586;28;20022;-84
2021/06/30 05:48:34;;;;;;;0.63;0.30;;;15.80;99.90;;;;;;4993389;28;20018;-84
2021/06/30 05:51:00;;;;;;;0.98;0.40;;;15.60;99.90;;;;;;4976894;28;20030;-84
2021/06/30 05:53:26;;;;;;;1.52;0.40;;;15.80;99.90;;;;;;4979388;28;20026;-83
2021/06/30 05:55:52;;;;;;;2.65;0.30;;;15.90;99.90;;;;;;4979444;28;20042;-83
2021/06/30 05:58:17;;;;;;;0.90;0.40;;;15.90;99.90;;;;;;4980203;28;20057;-83
2021/06/30 06:00:44;;;;;;;0.40;0.28;;;16.10;99.90;;;;;;4996670;28;20078;-83
2021/06/30 06:03:10;;;;;;;2.33;0.30;;;15.80;99.90;;;;;;4996719;28;20030;-83
2021/06/30 06:05:36;;;;;;;0.57;0.40;;;15.70;99.90;;;;;;4979309;28;20522;-83
2021/06/30 06:08:02;;;;;;;0.40;0.40;;;15.80;99.90;;;;;;4979217;28;20026;-84
2021/06/30 06:10:28;;;;;;;5.00;0.30;;;15.90;99.90;;;;;;4979900;28;20117;-83
2021/06/30 06:12:54;;;;;;;2.15;0.40;;;16.00;99.90;;;;;;4979047;28;20117;-83
2021/06/30 06:15:19;;;;;;;1.42;0.30;;;16.00;99.90;;;;;;4979058;28;20030;-83
2021/06/30 06:17:45;;;;;;;0.90;0.40;;;15.80;99.90;;;;;;4996488;28;20530;-83
2021/06/30 06:20:13;;;;;;;0.55;0.28;;;15.90;99.90;;;;;;4978967;28;20027;-82
2021/06/30 06:22:39;;;;;;;1.27;0.30;;;16.00;99.90;;;;;;4979378;28;20086;-83
2021/06/30 06:25:06;;;;;;;1.88;0.17;;;16.00;99.90;;;;;;4979003;28;20054;-82
2021/06/30 06:27:32;;;;;;;0.88;0.20;;;15.90;99.90;;;;;;4978903;28;20022;-81
2021/06/30 06:29:59;;;;;;;0.52;0.20;;;15.90;99.90;;;;;;4996323;28;20101;-83
2021/06/30 06:32:25;;;;;;;0.70;0.40;;;15.90;99.90;;;;;;4978727;28;20474;-82
2021/06/30 06:34:51;;;;;;;0.73;0.35;;;16.10;99.90;;;;;;4978701;28;20057;-83
2021/06/30 06:37:17;;;;;;;2.80;0.20;;;16.20;99.90;;;;;;4996138;28;20026;-83
2021/06/30 06:39:45;;;;;;;0.22;0.17;;;16.30;99.90;;;;;;4978581;28;20430;-82
2021/06/30 06:42:12;;;;;;;0.45;0.20;;;16.40;99.90;;;;;;4995957;28;20149;-83
2021/06/30 06:44:39;;;;;;;1.25;0.40;;;16.60;99.90;;;;;;4995969;28;20018;-84
2021/06/30 06:47:05;;;;;;;0.40;0.20;;;16.80;99.90;;;;;;4978404;28;20031;-83
2021/06/30 06:49:30;;;;;;;2.53;0.30;;;16.90;99.90;;;;;;4995906;28;20081;-84
2021/06/30 06:51:58;;;;;;;1.55;0.20;;;17.10;99.90;;;;;;4995850;28;20101;-83
2021/06/30 06:54:23;;;;;;;0.30;0.10;;;17.00;99.90;;;;;;4978326;28;20080;-82
2021/06/30 06:56:49;;;;;;;3.58;0.40;;;17.00;99.90;;;;;;4978542;28;20026;-82
2021/06/30 06:59:15;;;;;;;0.80;0.15;;;16.90;99.90;;;;;;4978187;28;20019;-82
2021/06/30 07:01:41;;;;;;;1.25;0.13;;;16.80;99.90;;;;;;4977851;28;20050;-82
2021/06/30 07:04:06;;;;;;;0.45;0.00;;;16.80;99.90;;;;;;4978123;28;20459;-82
2021/06/30 07:06:32;;;;;;;0.63;0.10;;;16.90;99.90;;;;;;4995506;28;20026;-82
2021/06/30 07:08:58;;;;;;;0.88;0.30;;;16.80;99.90;;;;;;4978133;28;20033;-82
2021/06/30 07:11:24;;;;;;;1.25;0.20;;;16.90;99.90;;;;;;4978451;28;20109;-82
2021/06/30 07:13:51;;;;;;;1.27;0.20;;;17.10;99.90;;;;;;4978026;28;20545;-81
2021/06/30 07:16:17;;;;;;;1.65;0.10;;;17.00;99.90;;;;;;4977988;28;20039;-79
2021/06/30 07:18:43;;;;;;;0.40;0.20;;;16.90;99.90;;;;;;4977941;28;20211;-82
2021/06/30 07:21:09;;;;;;;1.23;0.20;;;17.00;99.90;;;;;;4978144;28;20039;-82
2021/06/30 07:23:36;;;;;;;0.25;0.20;;;17.00;99.90;;;;;;4977746;28;20026;-81
2021/06/30 07:26:02;;;;;;;3.20;0.20;;;17.00;99.90;;;;;;4977721;28;20029;-81
2021/06/30 07:28:28;;;;;;;0.20;0.10;;;16.80;99.90;;;;;;4977645;28;20023;-81
2021/06/30 07:30:54;;;;;;;0.73;0.30;;;16.70;99.90;;;;;;4977630;28;20027;-82
2021/06/30 07:33:20;;;;;;;0.32;0.10;;;16.60;99.90;;;;;;4977603;28;20031;-80
2021/06/30 07:35:49;;;;;;;0.43;0.17;;;16.60;99.90;;;;;;4977515;28;20029;-82
2021/06/30 07:38:14;;;;;;;0.30;0.10;;;16.40;99.90;;;;;;4995199;28;20026;-82
2021/06/30 07:40:40;;;;;;;0.32;0.20;;;16.50;99.90;;;;;;4977652;28;20137;-81
2021/06/30 07:43:06;;;;;;;0.30;0.20;;;16.70;99.90;;;;;;4994579;28;20483;-81
2021/06/30 07:45:33;;;;;;;0.10;0.10;;;16.70;99.90;;;;;;4978152;28;20032;-81
2021/06/30 07:47:59;;;;;;;0.85;0.20;;;16.60;99.90;;;;;;4977416;28;20030;-81
2021/06/30 07:50:25;;;;;;;0.85;0.20;;;16.80;99.90;;;;;;4977355;28;20022;-82
2021/06/30 07:52:52;;;;;;;0.35;0.20;;;16.80;99.90;;;;;;4994740;28;20061;-81
2021/06/30 07:55:19;;;;;;;0.17;0.15;;;16.80;99.90;;;;;;4977229;28;20022;-81
2021/06/30 07:57:45;;;;;;;0.20;0.20;;;17.00;99.90;;;;;;4977137;28;20030;-81
2021/06/30 08:00:12;;;;;;;1.10;0.20;;;17.30;99.90;;;;;;4976856;28;20092;-82
2021/06/30 08:02:38;;;;;;;1.08;0.00;;;17.50;99.90;;;;;;4977012;28;20030;-82
2021/06/30 08:05:05;;;;;;;0.88;0.22;;;17.50;99.90;;;;;;4977035;28;20034;-82
2021/06/30 08:07:31;;;;;;;0.65;0.13;;;17.40;99.90;;;;;;4994456;28;20493;-83
2021/06/30 08:09:57;;;;;;;0.20;0.13;;;17.40;99.90;;;;;;4994417;28;20022;-82
2021/06/30 08:12:23;;;;;;;1.33;0.20;;;17.50;99.90;;;;;;4994375;28;20401;-82
2021/06/30 08:14:49;;;;;;;1.00;0.20;;;17.70;99.90;;;;;;4976954;28;20023;-82
2021/06/30 08:17:14;;;;;;;0.70;0.20;;;17.60;99.90;;;;;;4976944;28;20026;-83
2021/06/30 08:19:40;;;;;;;0.95;0.10;;;17.70;99.90;;;;;;4976868;28;20082;-83
2021/06/30 08:22:11;;;;;;;1.42;0.10;;;17.90;99.90;;;;;;4977217;28;20034;-82
2021/06/30 08:24:43;;;;;;;0.75;0.20;;;18.10;99.90;;;;;;4977275;28;20470;-82
2021/06/30 08:27:10;;;;;;;3.38;0.10;;;18.20;99.90;;;;;;4976880;28;20113;-81
2021/06/30 08:29:36;;;;;;;1.45;0.10;;;17.90;99.90;;;;;;4977136;28;20465;-82
2021/06/30 08:32:03;;;;;;;1.20;0.20;;;18.20;99.90;;;;;;4977744;28;20529;-82
2021/06/30 08:34:29;;;;;;;0.20;0.10;;;18.50;99.90;;;;;;4977264;28;20026;-83
2021/06/30 08:37:00;;;;;;;0.40;0.10;;;18.60;99.90;;;;;;4977074;28;20389;-82
2021/06/30 08:39:27;;;;;;;0.10;0.10;;;18.60;99.90;;;;;;4994529;28;20532;-82
2021/06/30 08:41:53;;;;;;;0.40;0.28;;;18.70;99.90;;;;;;4994194;28;20080;-82
2021/06/30 08:44:19;;;;;;;1.13;0.20;;;19.00;99.90;;;;;;4976818;28;20022;-82
2021/06/30 08:46:46;;;;;;;0.15;0.10;;;19.20;99.90;;;;;;4976868;28;20033;-82
2021/06/30 08:49:14;;;;;;;2.70;0.15;;;19.30;99.90;;;;;;4976623;28;20405;-86
2021/06/30 08:51:42;;;;;;;0.65;0.10;;;19.40;99.90;;;;;;4978240;28;20466;-85
2021/06/30 08:54:10;;;;;;;1.15;0.17;;;19.10;99.90;;;;;;4977269;28;20494;-85
2021/06/30 08:56:36;;;;;;;1.73;0.10;;;18.80;99.90;;;;;;4977328;28;20544;-86
2021/06/30 08:59:03;;;;;;;2.63;0.10;;;18.80;99.90;;;;;;4977528;28;20121;-86
2021/06/30 09:08:12;;;;;;;1.75;0.10;;;19.00;99.90;;;;;;4995993;28;20114;-86
2021/06/30 09:10:39;;;;;;;0.32;0.10;;;18.80;99.90;;;;;;4977915;28;20042;-86
2021/06/30 09:13:07;;;;;;;0.22;0.10;;;18.60;99.90;;;;;;4994435;28;20030;-86
2021/06/30 09:15:37;;;;;;;0.10;0.10;;;18.60;99.90;;;;;;4977055;28;20091;-85
2021/06/30 09:31:31;;;;;;;0.90;0.10;;;18.80;99.90;;;;;;4998548;28;20045;-89
2021/06/30 09:33:57;;;;;;;1.10;0.10;;;19.20;99.90;;;;;;4980405;28;20030;-85
2021/06/30 09:36:26;;;;;;;0.10;0.10;;;19.30;99.90;;;;;;4982227;28;20462;-91
2021/06/30 09:38:52;;;;;;;0.50;0.22;;;19.50;99.90;;;;;;4998423;28;20165;-86
2021/06/30 09:41:30;;;;;;;1.38;0.13;;;19.60;99.90;;;;;;4980720;28;20033;-86
2021/06/30 09:44:08;;;;;;;0.22;0.10;;;19.80;99.90;;;;;;4980098;28;20034;-86
2021/06/30 09:46:36;;;;;;;0.25;0.10;;;19.90;99.90;;;;;;4997787;28;20022;-85
2021/06/30 09:49:16;;;;;;;1.38;0.93;;;20.10;99.90;;;;;;4979948;28;20027;-84
2021/06/30 09:51:44;;;;;;;1.10;0.30;;;20.00;99.90;;;;;;4980174;28;20023;-85
2021/06/30 09:54:12;;;;;;;0.28;0.20;;;20.60;99.90;;;;;;4998214;28;20038;-80
2021/06/30 09:56:40;;;;;;;1.00;0.10;;;20.70;99.90;;;;;;4997275;28;20030;-82
2021/06/30 09:59:09;;;;;;;0.50;0.10;;;20.30;99.90;;;;;;4997328;28;20100;-83
2021/06/30 10:01:38;;;;;;;1.95;0.20;;;20.50;99.90;;;;;;4979479;28;20394;-83
2021/06/30 10:04:04;;;;;;;0.00;0.00;;;19.90;99.90;;;;;;4996982;28;20485;-83
2021/06/30 10:06:32;;;;;;;0.85;0.20;;;19.50;99.90;;;;;;4979707;28;20089;-82
2021/06/30 10:09:00;;;;;;;0.25;0.15;;;19.60;99.90;;;;;;4997173;28;20023;-83
2021/06/30 10:11:30;;;;;;;1.17;0.30;;;19.90;99.90;;;;;;4979441;28;20059;-82
2021/06/30 10:13:57;;;;;;;0.20;0.17;;;20.30;99.90;;;;;;4979562;28;20561;-82
2021/06/30 10:16:24;;;;;;;3.40;0.50;;;20.00;99.90;;;;;;4979735;28;20045;-82
2021/06/30 10:18:52;;;;;;;0.57;0.15;;;20.30;99.90;;;;;;4979342;28;20022;-82
2021/06/30 10:21:21;;;;;;;1.55;0.30;;;20.30;99.90;;;;;;4979272;28;20524;-81
2021/06/30 10:23:48;;;;;;;0.10;0.10;;;20.20;99.90;;;;;;4996632;28;20027;-81
2021/06/30 10:26:16;;;;;;;0.20;0.20;;;20.20;99.90;;;;;;4996727;28;20022;-82
2021/06/30 10:28:44;;;;;;;1.55;0.20;;;20.70;99.90;;;;;;4996829;28;20081;-82
2021/06/30 10:31:10;;;;;;;2.50;0.10;;;20.60;99.90;;;;;;4979282;28;20022;-82
2021/06/30 10:33:41;;;;;;;0.38;0.13;;;20.40;99.90;;;;;;4979169;28;20030;-82
2021/06/30 10:36:10;;;;;;;0.20;0.20;;;20.40;99.90;;;;;;4978860;28;20023;-82
2021/06/30 10:38:54;;;;;;;0.40;0.10;;;20.50;99.90;;;;;;4979028;28;20518;-82
2021/06/30 10:41:53;;;;;;;0.77;0.10;;;20.10;99.90;;;;;;4979193;28;20088;-82
2021/06/30 10:44:26;;;;;;;0.40;0.13;;;20.00;99.90;;;;;;4979032;28;20482;-82
2021/06/30 10:46:53;;;;;;;0.20;0.10;;;20.10;99.90;;;;;;4978754;28;20068;-82
2021/06/30 10:49:23;;;;;;;0.10;0.10;;;20.20;99.90;;;;;;4996235;28;20088;-81
2021/06/30 10:52:00;;;;;;;0.30;0.10;;;20.60;99.90;;;;;;4978718;28;20023;-81
2021/06/30 10:54:45;;;;;;;0.38;0.20;;;21.00;99.90;;;;;;4996177;28;20029;-81
2021/06/30 10:57:21;;;;;;;0.38;0.20;;;21.10;99.90;;;;;;4978728;28;20030;-82
2021/06/30 11:00:02;;;;;;;2.55;0.40;;;21.50;99.90;;;;;;4978467;28;20386;-82
2021/06/30 11:02:31;;;;;;;0.15;0.13;;;21.40;99.90;;;;;;4978540;28;20031;-82
2021/06/30 11:05:13;;;;;;;0.20;0.20;;;21.90;99.90;;;;;;4978408;28;20025;-83
2021/06/30 11:07:40;;;;;;;1.85;0.25;;;22.10;99.90;;;;;;4978699;28;20068;-81
2021/06/30 11:10:20;;;;;;;0.20;0.13;;;21.90;99.90;;;;;;4978404;28;20061;-82
2021/06/30 11:13:00;;;;;;;1.13;0.05;;;21.60;99.90;;;;;;4978218;28;20038;-82
2021/06/30 11:15:38;;;;;;;0.43;0.20;;;21.40;99.90;;;;;;4978365;28;20081;-82
2021/06/30 11:18:06;;;;;;;0.22;0.20;;;20.90;99.90;;;;;;4995726;28;20030;-81
2021/06/30 11:20:49;;;;;;;1.45;0.30;;;20.00;99.90;;;;;;4978149;28;20393;-81
2021/06/30 11:23:19;;;;;;;4.05;0.50;;;19.90;99.90;;;;;;4995415;28;20070;-82
2021/06/30 11:25:45;;;;;;;0.88;0.45;;;19.40;99.90;;;;;;4995488;28;20022;-81
2021/06/30 11:28:30;;;;;;;0.60;0.22;;;18.80;99.90;;;;;;4995353;28;20049;-82
2021/06/30 11:30:57;;;;;;;1.25;0.30;;;18.40;99.90;;;;;;4995377;28;20385;-81
2021/06/30 11:33:23;;;;;;;0.73;0.20;;;18.90;99.90;;;;;;4995438;28;20393;-83
2021/06/30 11:35:49;;;;;;;0.60;0.30;;;19.20;99.90;;;;;;4979129;28;20022;-82
2021/06/30 11:38:18;;;;;;;0.47;0.20;;;19.40;99.90;;;;;;4995220;28;20037;-82
2021/06/30 11:40:58;;;;;;;2.75;0.30;;;20.20;99.90;;;;;;4977646;28;20042;-82
2021/06/30 11:43:28;;;;;;;0.22;0.20;;;20.50;99.90;;;;;;4978537;28;20462;-83
2021/06/30 11:45:58;;;;;;;0.75;0.20;;;19.90;99.90;;;;;;4978267;28;20050;-82
2021/06/30 11:48:25;;;;;;;2.45;0.30;;;19.40;99.90;;;;;;4994535;28;20077;-82
2021/06/30 11:50:57;;;;;;;4.10;0.65;;;19.30;99.90;;;;;;4994889;28;20023;-82
2021/06/30 11:53:39;;;;;;;4.13;0.50;;;18.80;99.90;;;;;;4977506;28;20035;-83
2021/06/30 11:56:08;;;;;;;0.85;0.28;;;19.00;99.90;;;;;;4977349;28;20034;-82
2021/06/30 11:58:54;;;;;;;0.43;0.22;;;18.70;99.90;;;;;;4977636;28;20045;-82
2021/06/30 12:01:27;;;;;;;1.48;0.20;;;18.50;99.90;;;;;;4977228;28;20069;-82
2021/06/30 12:04:16;;;;;;;0.22;0.20;;;18.70;99.90;;;;;;4977811;28;20066;-82
2021/06/30 12:06:45;;;;;;;1.23;0.20;;;18.70;99.90;;;;;;4977290;28;20026;-83
2021/06/30 12:09:14;;;;;;;1.88;0.30;;;18.50;99.90;;;;;;4994749;28;20019;-82
2021/06/30 12:11:44;;;;;;;1.88;0.22;;;18.30;99.90;;;;;;4977160;28;20027;-81
2021/06/30 12:14:14;;;;;;;2.15;0.22;;;18.10;99.90;;;;;;4977242;28;20033;-82
2021/06/30 12:16:45;;;;;;;0.40;0.20;;;18.30;99.90;;;;;;4977066;28;20045;-82
2021/06/30 12:19:18;;;;;;;1.65;0.10;;;19.20;99.90;;;;;;4977263;28;20046;-83
2021/06/30 12:21:46;;;;;;;0.25;0.20;;;20.00;99.90;;;;;;4994500;28;20441;-82
2021/06/30 12:24:20;;;;;;;2.17;0.20;;;20.50;99.90;;;;;;4977055;28;20406;-83
2021/06/30 12:27:01;;;;;;;0.60;0.20;;;20.10;99.90;;;;;;4994555;28;20024;-82
2021/06/30 12:29:27;;;;;;;2.20;0.22;;;19.90;99.90;;;;;;4994387;28;20030;-83
2021/06/30 12:31:53;;;;;;;2.22;0.40;;;20.50;99.90;;;;;;4976968;28;20022;-83
2021/06/30 12:34:19;;;;;;;0.73;0.30;;;21.00;99.90;;;;;;4994456;28;20478;-82
2021/06/30 12:36:45;;;;;;;0.60;0.20;;;22.40;99.90;;;;;;4976944;28;20545;-82
2021/06/30 12:39:40;;;;;;;2.58;0.20;;;22.00;99.90;;;;;;4994532;28;20022;-82
2021/06/30 12:42:09;;;;;;;2.33;0.10;;;22.00;99.90;;;;;;4974575;28;20069;-82
2021/06/30 12:44:53;;;;;;;1.65;0.30;;;21.90;99.90;;;;;;4977056;28;20117;-83
2021/06/30 12:47:18;;;;;;;0.40;0.13;;;20.90;99.90;;;;;;4994380;28;20366;-83
2021/06/30 12:49:57;;;;;;;0.47;0.13;;;20.60;99.90;;;;;;4977276;28;20057;-83
2021/06/30 12:52:23;;;;;;;0.93;0.20;;;20.40;99.90;;;;;;4976772;28;20038;-83
2021/06/30 12:55:18;;;;;;;0.75;0.20;;;20.60;99.90;;;;;;4994497;28;20022;-83
2021/06/30 12:58:04;;;;;;;0.80;0.20;;;20.70;99.90;;;;;;4955036;28;20532;-83
2021/06/30 13:00:34;;;;;;;1.65;0.20;;;20.80;99.90;;;;;;4978601;28;20085;-84
2021/06/30 13:03:15;;;;;;;0.32;0.20;;;20.80;99.90;;;;;;4998045;28;20045;-83
2021/06/30 13:05:44;;;;;;;0.32;0.25;;;20.40;99.90;;;;;;4980757;28;20477;-83
2021/06/30 13:08:38;;;;;;;1.77;0.15;;;20.30;99.90;;;;;;4980524;28;20053;-82
2021/06/30 13:11:25;;;;;;;0.22;0.13;;;19.70;99.90;;;;;;4995002;28;20042;-83
2021/06/30 13:13:54;;;;;;;1.02;0.40;;;19.30;99.90;;;;;;4979774;28;20042;-82
2021/06/30 13:16:21;;;;;;;0.35;0.10;;;19.40;99.90;;;;;;4980492;28;20030;-82